createdAt,value
2022-07-27T00:01:34.730Z,18.40
2022-07-27T00:05:39.780Z,18.70
2022-07-27T00:09:43.171Z,18.80
2022-07-27T00:13:47.879Z,18.90
2022-07-27T00:17:51.200Z,18.90
2022-07-27T00:21:54.647Z,19.00
2022-07-27T00:25:57.878Z,19.00
2022-07-27T00:30:02.532Z,19.00
2022-07-27T00:34:06.574Z,19.00
2022-07-27T00:38:09.701Z,18.90
2022-07-27T00:42:12.830Z,18.90
2022-07-27T00:46:17.477Z,18.90
2022-07-27T00:50:20.706Z,18.90
2022-07-27T00:54:24.265Z,18.90
2022-07-27T00:58:28.530Z,18.70
2022-07-27T01:02:33.138Z,18.00
2022-07-27T01:06:36.956Z,17.50
2022-07-27T01:10:40.912Z,17.20
2022-07-27T01:14:44.324Z,17.00
2022-07-27T01:18:48.959Z,16.80
2022-07-27T01:22:53.466Z,16.70
2022-07-27T01:26:56.820Z,16.60
2022-07-27T01:31:00.166Z,16.40
2022-07-27T01:35:03.888Z,16.40
2022-07-27T01:39:08.952Z,16.20
2022-07-27T01:43:12.677Z,16.10
2022-07-27T01:47:15.771Z,16.00
2022-07-27T01:51:18.897Z,16.00
2022-07-27T01:55:23.987Z,16.00
2022-07-27T01:59:27.142Z,16.00
2022-07-27T02:03:30.257Z,16.00
2022-07-27T02:07:34.341Z,15.90
2022-07-27T02:11:56.336Z,15.80
2022-07-27T02:15:59.490Z,15.70
2022-07-27T02:20:03.569Z,15.60
2022-07-27T02:24:07.582Z,15.50
2022-07-27T02:28:12.162Z,15.50
2022-07-27T02:32:15.397Z,15.40
2022-07-27T02:36:18.636Z,15.40
2022-07-27T02:40:22.119Z,15.50
2022-07-27T02:44:26.609Z,15.40
2022-07-27T02:48:29.917Z,15.40
2022-07-27T02:52:33.025Z,15.20
2022-07-27T02:56:36.133Z,15.00
2022-07-27T03:00:40.863Z,14.90
2022-07-27T03:04:44.189Z,14.90
2022-07-27T03:08:47.551Z,15.00
2022-07-27T03:12:53.213Z,15.00
2022-07-27T03:16:57.920Z,15.00
2022-07-27T03:21:01.420Z,15.00
2022-07-27T03:25:04.907Z,15.10
2022-07-27T03:29:08.111Z,15.30
2022-07-27T03:33:12.820Z,15.40
2022-07-27T03:37:16.965Z,15.60
2022-07-27T03:41:20.185Z,15.80
2022-07-27T03:45:23.516Z,15.90
2022-07-27T03:49:28.199Z,16.10
2022-07-27T03:53:31.361Z,16.00
2022-07-27T03:57:34.484Z,16.10
2022-07-27T04:01:37.764Z,16.20
2022-07-27T04:05:42.337Z,16.40
2022-07-27T04:09:46.669Z,16.30
2022-07-27T04:13:51.671Z,16.30
2022-07-27T04:17:57.502Z,16.50
2022-07-27T04:22:02.405Z,16.60
2022-07-27T04:26:05.550Z,16.80
2022-07-27T04:30:10.080Z,17.00
2022-07-27T04:34:13.248Z,17.10
2022-07-27T04:38:17.758Z,17.10
2022-07-27T04:42:20.917Z,17.30
2022-07-27T04:46:24.304Z,17.40
2022-07-27T04:50:27.670Z,17.60
2022-07-27T04:54:32.183Z,17.80
2022-07-27T04:58:35.473Z,18.10
2022-07-27T05:02:40.999Z,18.30
2022-07-27T05:06:44.277Z,18.60
2022-07-27T05:10:49.290Z,18.80
2022-07-27T05:14:52.509Z,19.10
2022-07-27T05:18:55.688Z,19.20
2022-07-27T05:22:59.287Z,19.30
2022-07-27T05:27:03.846Z,19.40
2022-07-27T05:31:06.986Z,19.40
2022-07-27T05:35:11.246Z,19.50
2022-07-27T05:39:14.508Z,19.50
2022-07-27T05:43:19.330Z,19.60
2022-07-27T05:47:22.667Z,19.70
2022-07-27T05:51:25.787Z,20.00
2022-07-27T05:55:29.062Z,20.20
2022-07-27T05:59:33.671Z,20.40
2022-07-27T06:03:38.228Z,20.40
2022-07-27T06:07:59.194Z,20.40
2022-07-27T06:12:02.340Z,20.60
2022-07-27T06:16:07.757Z,20.80
2022-07-27T06:20:11.195Z,21.10
2022-07-27T06:24:14.727Z,21.40
2022-07-27T06:28:19.289Z,21.50
2022-07-27T06:32:23.854Z,21.80
2022-07-27T06:36:27.249Z,22.00
2022-07-27T06:40:30.400Z,22.20
2022-07-27T06:44:33.667Z,22.50
2022-07-27T06:48:38.310Z,22.60
2022-07-27T06:52:41.503Z,22.80
2022-07-27T06:56:44.866Z,23.00
2022-07-27T07:00:48.417Z,23.40
2022-07-27T07:04:53.478Z,23.80
2022-07-27T07:08:56.586Z,24.00
2022-07-27T07:13:05.490Z,24.00
2022-07-27T07:17:08.630Z,24.10
2022-07-27T07:21:13.243Z,24.50
2022-07-27T07:25:16.535Z,24.90
2022-07-27T07:29:19.932Z,25.30
2022-07-27T07:33:23.147Z,26.00
2022-07-27T07:37:33.685Z,26.50
2022-07-27T07:41:37.660Z,27.20
2022-07-27T07:45:50.598Z,27.70
2022-07-27T07:49:54.447Z,28.40
2022-07-27T07:53:58.993Z,28.50
2022-07-27T07:58:02.213Z,28.40
2022-07-27T08:02:06.035Z,28.40
2022-07-27T08:06:09.291Z,28.40
2022-07-27T08:10:16.463Z,28.90
2022-07-27T08:14:19.575Z,29.00
2022-07-27T08:18:22.657Z,29.10
2022-07-27T08:22:26.326Z,29.10
2022-07-27T08:26:30.877Z,29.10
2022-07-27T08:30:34.034Z,29.20
2022-07-27T08:34:37.207Z,29.40
2022-07-27T08:38:41.801Z,29.90
2022-07-27T08:42:46.830Z,30.10
2022-07-27T08:46:53.041Z,30.20
2022-07-27T08:50:56.546Z,30.40
2022-07-27T08:54:59.818Z,30.60
2022-07-27T08:59:04.773Z,30.70
2022-07-27T09:03:08.242Z,30.70
2022-07-27T09:07:11.397Z,31.70
2022-07-27T09:11:16.304Z,31.80
2022-07-27T09:15:21.332Z,31.90
2022-07-27T09:19:24.780Z,31.90
2022-07-27T09:23:28.442Z,32.00
2022-07-27T09:27:32.383Z,32.10
2022-07-27T09:31:43.881Z,31.70
2022-07-27T09:35:59.519Z,31.70
2022-07-27T09:40:13.680Z,31.60
2022-07-27T09:44:34.702Z,31.90
2022-07-27T09:48:44.277Z,32.50
2022-07-27T09:52:48.059Z,32.40
2022-07-27T09:57:00.428Z,32.10
2022-07-27T10:01:03.601Z,31.00
2022-07-27T10:05:09.059Z,31.70
2022-07-27T10:09:12.357Z,33.10
2022-07-27T10:13:15.911Z,33.80
2022-07-27T10:17:19.129Z,34.40
2022-07-27T10:21:24.703Z,33.20
2022-07-27T10:25:32.518Z,32.20
2022-07-27T10:29:41.566Z,31.60
2022-07-27T10:33:45.719Z,31.10
2022-07-27T10:38:08.388Z,30.40
2022-07-27T10:42:26.602Z,30.40
2022-07-27T10:46:32.148Z,31.90
2022-07-27T10:50:35.434Z,32.00
2022-07-27T10:54:41.921Z,32.30
2022-07-27T10:58:50.279Z,32.40
2022-07-27T11:02:53.433Z,32.40
2022-07-27T11:07:24.085Z,31.60
2022-07-27T11:11:25.084Z,31.40
2022-07-27T11:15:28.238Z,32.20
2022-07-27T11:19:31.452Z,32.70
2022-07-27T11:23:50.961Z,32.80
2022-07-27T11:27:56.128Z,33.50
2022-07-27T11:32:00.967Z,33.30
2022-07-27T11:36:06.602Z,32.40
2022-07-27T11:40:53.365Z,31.90
2022-07-27T11:44:39.986Z,31.00
2022-07-27T11:49:06.608Z,30.80
2022-07-27T11:53:11.318Z,32.00
2022-07-27T11:57:17.019Z,31.70
2022-07-27T12:01:29.970Z,31.30
2022-07-27T12:05:33.325Z,31.40
2022-07-27T12:09:39.168Z,31.60
2022-07-27T12:13:42.511Z,32.30
2022-07-27T12:17:47.891Z,32.70
2022-07-27T12:21:55.375Z,32.30
2022-07-27T12:25:58.579Z,31.90
2022-07-27T12:30:07.194Z,31.90
2022-07-27T12:34:15.406Z,31.50
2022-07-27T12:38:19.073Z,30.90
2022-07-27T12:42:22.218Z,30.20
2022-07-27T12:46:25.636Z,30.50
2022-07-27T12:50:30.883Z,30.40
2022-07-27T12:54:34.192Z,30.30
2022-07-27T12:58:38.759Z,30.20
2022-07-27T13:02:42.069Z,30.30
2022-07-27T13:06:46.719Z,30.30
2022-07-27T13:10:52.328Z,30.00
2022-07-27T13:14:55.887Z,30.10
2022-07-27T13:18:58.983Z,30.00
2022-07-27T13:23:03.592Z,29.40
2022-07-27T13:27:06.753Z,28.70
2022-07-27T13:31:10.152Z,28.30
2022-07-27T13:35:14.237Z,28.10
2022-07-27T13:39:18.973Z,28.00
2022-07-27T13:43:22.167Z,28.00
2022-07-27T13:47:25.344Z,28.10
2022-07-27T13:51:28.552Z,28.00
2022-07-27T13:55:33.052Z,28.00
2022-07-27T13:59:36.271Z,27.80
2022-07-27T14:03:39.606Z,28.30
2022-07-27T14:07:43.238Z,29.80
2022-07-27T14:11:53.013Z,30.60
2022-07-27T14:16:51.283Z,31.00
2022-07-27T14:21:28.118Z,31.10
2022-07-27T14:26:04.712Z,30.00
2022-07-27T14:30:43.077Z,29.30
2022-07-27T14:35:17.206Z,30.00
2022-07-27T14:39:54.111Z,30.30
2022-07-27T14:44:31.179Z,30.60
2022-07-27T14:49:08.661Z,30.70
2022-07-27T14:53:12.256Z,31.10
2022-07-27T14:57:48.603Z,30.10
2022-07-27T15:01:51.877Z,29.40
2022-07-27T15:06:25.900Z,28.50
2022-07-27T15:10:30.534Z,27.80
2022-07-27T15:15:06.514Z,27.60
2022-07-27T15:19:11.418Z,28.00
2022-07-27T15:23:14.804Z,28.30
2022-07-27T15:27:19.412Z,29.00
2022-07-27T15:31:25.577Z,28.80
2022-07-27T15:35:28.724Z,28.70
2022-07-27T15:40:20.404Z,28.60
2022-07-27T15:45:18.522Z,28.90
2022-07-27T15:49:56.726Z,28.50
2022-07-27T15:54:00.227Z,28.00
2022-07-27T15:58:36.897Z,28.20
2022-07-27T16:02:40.152Z,28.30
2022-07-27T16:06:44.850Z,27.90
2022-07-27T16:10:49.739Z,27.60
2022-07-27T16:15:44.410Z,27.30
2022-07-27T16:26:00.887Z,26.50
2022-07-27T16:30:10.453Z,26.30
2022-07-27T16:34:13.580Z,26.30
2022-07-27T16:38:17.376Z,26.30
2022-07-27T16:42:21.855Z,26.20
2022-07-27T16:46:55.467Z,25.90
2022-07-27T16:51:32.714Z,25.80
2022-07-27T16:56:10.109Z,25.60
2022-07-27T17:00:45.691Z,25.50
2022-07-27T17:04:48.838Z,25.50
2022-07-27T17:09:26.215Z,25.70
2022-07-27T17:13:33.941Z,26.40
2022-07-27T17:17:38.905Z,26.30
2022-07-27T17:22:13.293Z,26.00
2022-07-27T17:26:16.478Z,25.80
2022-07-27T17:30:19.906Z,25.80
2022-07-27T17:34:58.414Z,25.90
2022-07-27T17:39:32.342Z,25.90
2022-07-27T17:43:38.730Z,25.80
2022-07-27T17:48:12.639Z,25.30
2022-07-27T17:52:49.221Z,25.00
2022-07-27T17:56:53.855Z,24.90
2022-07-27T18:00:56.959Z,24.90
2022-07-27T18:05:33.511Z,24.80
2022-07-27T18:10:10.828Z,24.60
2022-07-27T18:15:02.810Z,24.50
2022-07-27T18:19:07.004Z,24.40
2022-07-27T18:23:40.783Z,24.10
2022-07-27T18:28:19.010Z,23.90
2022-07-27T18:32:54.788Z,23.60
2022-07-27T18:37:28.740Z,23.40
2022-07-27T18:42:05.736Z,23.30
2022-07-27T18:46:42.648Z,23.20
2022-07-27T18:51:19.203Z,23.10
2022-07-27T18:55:56.944Z,22.90
2022-07-27T19:00:00.174Z,22.70
2022-07-27T19:04:34.301Z,22.50
2022-07-27T19:13:55.707Z,22.10
2022-07-27T19:18:29.698Z,21.80
2022-07-27T19:23:06.583Z,21.60
2022-07-27T19:27:43.690Z,21.50
2022-07-27T19:32:22.671Z,21.40
2022-07-27T19:36:57.003Z,21.30
2022-07-27T19:41:33.814Z,21.10
2022-07-27T19:46:10.739Z,21.00
2022-07-27T19:50:47.609Z,20.90
2022-07-27T19:55:26.009Z,20.80
2022-07-27T20:00:04.788Z,20.70
2022-07-27T20:04:09.614Z,20.60
2022-07-27T20:08:13.141Z,20.60
2022-07-27T20:12:51.351Z,20.50
2022-07-27T20:17:25.395Z,20.40
2022-07-27T20:21:41.295Z,20.30
2022-07-27T20:26:15.398Z,20.30
2022-07-27T20:30:53.705Z,20.20
2022-07-27T20:35:30.931Z,20.10
2022-07-27T20:40:05.620Z,20.00
2022-07-27T20:44:39.455Z,20.00
2022-07-27T20:48:44.245Z,19.90
2022-07-27T20:52:47.422Z,19.80
2022-07-27T20:57:24.135Z,19.60
2022-07-27T21:02:01.675Z,19.50
2022-07-27T21:06:38.660Z,19.40
2022-07-27T21:11:15.166Z,19.30
2022-07-27T21:15:19.986Z,19.20
2022-07-27T21:19:23.210Z,19.00
2022-07-27T21:23:43.360Z,18.90
2022-07-27T21:28:01.443Z,18.80
2022-07-27T21:32:07.686Z,18.80
2022-07-27T21:36:11.183Z,18.80
2022-07-27T21:40:47.891Z,18.80
2022-07-27T21:44:51.238Z,18.60
2022-07-27T21:48:55.914Z,18.60
2022-07-27T21:53:00.138Z,18.50
2022-07-27T21:57:36.888Z,18.50
2022-07-27T22:02:14.058Z,18.50
2022-07-27T22:06:18.959Z,18.40
2022-07-27T22:10:22.238Z,18.40
2022-07-27T22:14:58.978Z,18.40
2022-07-27T22:19:02.468Z,18.40
2022-07-27T22:23:41.204Z,18.30
2022-07-27T22:27:44.453Z,18.20
2022-07-27T22:31:47.656Z,18.20
2022-07-27T22:36:24.178Z,18.20
2022-07-27T22:40:28.778Z,18.10
2022-07-27T22:45:02.799Z,18.00
2022-07-27T22:49:06.054Z,18.00
2022-07-27T22:53:43.002Z,18.00
2022-07-27T22:57:47.525Z,18.00
2022-07-27T23:02:24.175Z,18.00
2022-07-27T23:06:27.357Z,17.90
2022-07-27T23:11:01.328Z,17.90
2022-07-27T23:15:40.238Z,17.70
2022-07-27T23:19:43.770Z,17.70
2022-07-27T23:23:49.871Z,17.70
2022-07-27T23:27:57.484Z,17.50
2022-07-27T23:32:19.761Z,17.50
2022-07-27T23:36:22.878Z,17.50
2022-07-27T23:40:59.563Z,17.50
2022-07-27T23:45:03.308Z,17.60
2022-07-27T23:49:38.911Z,17.70
2022-07-27T23:53:42.017Z,17.70
2022-07-27T23:57:45.292Z,17.70
